Bahawalpur Weather



Bahawalpur's Current Weather

Temprature 29.21o clear sky

clear sky

Rain: 0 %

Min Temprature29.21o
Max Temprature29.21o
Humidity50
Wind Speed5.24 m/h
Sun Rise06:03:28
Sun Set18:05:57
Current Time: 26-Sep-2022 08:18:09
Lat/Lon: 29.4, 71.6833




Bahawalpur's Geo Location



Bahawalpur's Weather Forecast

Time Overall Temp Min Temp Max Temp Humidity Wind Speed Rain
26-Sep-2022 (Mon)
11:00:00 clear sky 30.790 30.790 33.950 45 4.42 m/h 0 %
14:00:00 clear sky 34.160 34.160 36.630 37 3.9 m/h 0 %
17:00:00 clear sky 35.620 35.620 35.620 31 3.67 m/h 0 %
20:00:00 clear sky 30.830 30.830 30.830 41 2.61 m/h 0 %
23:00:00 clear sky 29.630 29.630 29.630 44 2.1 m/h 0 %
27-Sep-2022 (Tue)
02:00:00 clear sky 28.460 28.460 28.460 42 2.92 m/h 0 %
05:00:00 clear sky 27.310 27.310 27.310 40 3.75 m/h 0 %
08:00:00 clear sky 30.240 30.240 30.240 36 5.96 m/h 0 %
11:00:00 clear sky 36.270 36.270 36.270 27 7.26 m/h 0 %
14:00:00 clear sky 38.210 38.210 38.210 21 6.91 m/h 0 %
17:00:00 clear sky 36.470 36.470 36.470 24 5.34 m/h 0 %
20:00:00 clear sky 31.460 31.460 31.460 32 3.68 m/h 0 %
23:00:00 clear sky 29.920 29.920 29.920 34 4.07 m/h 0 %
28-Sep-2022 (Wed)
02:00:00 clear sky 28.660 28.660 28.660 32 4.41 m/h 0 %
05:00:00 clear sky 27.040 27.040 27.040 34 4.39 m/h 0 %
08:00:00 clear sky 29.670 29.670 29.670 43 6.69 m/h 0 %
11:00:00 clear sky 35.630 35.630 35.630 28 6.97 m/h 0 %
14:00:00 clear sky 37.750 37.750 37.750 21 5.72 m/h 0 %
17:00:00 clear sky 36.310 36.310 36.310 21 4.33 m/h 0 %
20:00:00 clear sky 30.450 30.450 30.450 26 3.4 m/h 0 %
23:00:00 clear sky 28.880 28.880 28.880 25 3.87 m/h 0 %
29-Sep-2022 (Thu)
02:00:00 clear sky 27.520 27.520 27.520 29 4.13 m/h 0 %
05:00:00 clear sky 25.780 25.780 25.780 42 4.07 m/h 0 %
08:00:00 clear sky 29.020 29.020 29.020 48 6.29 m/h 0 %
11:00:00 clear sky 35.170 35.170 35.170 28 6.52 m/h 0 %
14:00:00 clear sky 37.330 37.330 37.330 21 5.46 m/h 0 %
17:00:00 clear sky 35.960 35.960 35.960 21 3.94 m/h 0 %
20:00:00 clear sky 30.230 30.230 30.230 26 3.16 m/h 0 %
23:00:00 clear sky 28.210 28.210 28.210 27 3.36 m/h 0 %
30-Sep-2022 (Fri)
02:00:00 clear sky 26.960 26.960 26.960 33 3.8 m/h 0 %
05:00:00 clear sky 26.050 26.050 26.050 39 3.98 m/h 0 %
08:00:00 clear sky 28.950 28.950 28.950 47 6.06 m/h 0 %
11:00:00 clear sky 35.400 35.400 35.400 30 7.35 m/h 0 %
14:00:00 clear sky 37.820 37.820 37.820 22 6.56 m/h 0 %
17:00:00 clear sky 36.160 36.160 36.160 23 4.72 m/h 0 %
20:00:00 clear sky 30.570 30.570 30.570 32 3.17 m/h 0 %
23:00:00 clear sky 29.030 29.030 29.030 37 3.99 m/h 0 %
01-Oct-2022 (Sat)
02:00:00 clear sky 27.810 27.810 27.810 33 4.32 m/h 0 %
05:00:00 clear sky 26.370 26.370 26.370 40 4.23 m/h 0 %
08:00:00 clear sky 29.310 29.310 29.310 45 6.79 m/h 0 %


Bahawalpur's Tourist Spots

Historical Places in Bahawalpur

Famous Cities (61)